GMMXGOOY

Guest
Details From GMMX - MENARA
To GOOY - Dakar Leopold Sedar Senghor Intl
Flight Number -
Tags generated
Created
Modified
Stats Distance 1,156 nm / 2,141 km
Max Altitude 34,000 ft / 10,363 m
Waypoints 11
Social Downloads 2
Likes 0
Share VATSIM

Download

Looking for another format? Having issues loading an existing format? Contact us
Advertisement - Login to hide

Notes

Basic altitude profile: - Ascent Rate: 2500ft/min - Ascent Speed: 250kts - Cruise Altitude: 35000ft - Cruise Speed: 420kts - Descent Rate: 1500ft/min - Descent Speed: 250kts Options: - Use NATs: yes - Use PACOTS: yes - Use low airways: no - Use high airways: yes

Route

GMMX ADM UR975 SLO GOOY

ID Type Via Altitude Latitude Longitude Leg Dist Tot Dist Heading (true) Name
O GMMX APT - 0 ft / 0 m 31.60692˚ -8.03627˚ - 0 nm - MENARA
ADM VOR - 34,000 ft / 10,363 m 30.32194˚ -9.38333˚ 103 nm 103 nm 222° / 222° AGADIR VOR-DME
MOROX FIX UR975 (AWY-HI) 34,000 ft / 10,363 m 29.00000˚ -10.00889˚ 85 nm 189 nm 203° / 202° -
ECHED FIX UR975 (AWY-HI) 34,000 ft / 10,363 m 27.66667˚ -10.51667˚ 84 nm 274 nm 199° / 198° -
BIMOG FIX UR975 (AWY-HI) 34,000 ft / 10,363 m 25.21667˚ -11.55000˚ 157 nm 431 nm 201° / 200° -
ZRT VOR UR975 (AWY-HI) 34,000 ft / 10,363 m 22.75853˚ -12.46158˚ 155 nm 587 nm 199° / 199° ZOUERAT VOR
AR NDB UR975 (AWY-HI) 34,000 ft / 10,363 m 20.50231˚ -13.05908˚ 139 nm 726 nm 194° / 194° ATAR NDB
IDINI FIX UR975 (AWY-HI) 34,000 ft / 10,363 m 17.64306˚ -15.26583˚ 212 nm 939 nm 216° / 216° -
ULNOT FIX UR975 (AWY-HI) 34,000 ft / 10,363 m 17.10722˚ -15.66917˚ 39 nm 978 nm 216° / 216° -
SLO NDB UR975 (AWY-HI) 24,500 ft / 7,468 m 16.04908˚ -16.45714˚ 78 nm 1056 nm 216° / 215° SAINT LOUIS NDB
O GOOY APT - 0 ft / 0 m 14.73971˚ -17.49023˚ 98 nm 1155 nm 217° / 217° Dakar Leopold Sedar Senghor Intl

Altitude Profile

Advertisement - Login to hide

Weather


0- 5 10 15 20 25 30 35+ Temperature / ° C

Clouds and Precipitation
Forecast for 2017-12-17 00:00 UTC. Updated 2 hours ago

Ground ~20,000 ft ~40,000 ft Winds

GMMX

Details ICAO GMMX (RAK)
Name MENARA
Region Morocco
Timezone Africa/Casablanca (UTC+0.0)
Stats Elevation 1,545 ft / 471 m (AMSL)
Location 31.606920° -8.036265°
Runways 1
Magnetic Variation 1.999° W

METAR

GMMX 170030Z 02006KT 340V040 9999 SCT010 BKN020 12/10 Q1020 NOSIG

Decode

TAF

TAF GMMX 162300Z 1700/1806 04006KT 8000 SCT020 SCT080 TEMPO 1803/1806 3000 BR BKN010

Decode

Departure Runways

ID Width Length Bearing (true) Bearing (mag) Surface Threshold Offset Overrun Length
10 148 ft / 45 m 10,169 ft / 3,100 m 95.99° 97.99° Asphalt 918 ft / 280 m 0 ft / 0 m
28 148 ft / 45 m 10,169 ft / 3,100 m 276.00° 278.00° Asphalt 0 ft / 0 m 0 ft / 0 m

GOOY

Details ICAO GOOY (DKR)
Name Dakar Leopold Sedar Senghor Intl
Region Senegal
Timezone Africa/Dakar (UTC+0.0)
Stats Elevation 85 ft / 26 m (AMSL)
Location 14.739711° -17.490226°
Runways 2
Magnetic Variation 7.347° W

METAR

GOOY 170000Z 36008KT 8000 NSC 22/19 Q1016

Decode

TAF

TAF GOOY 162330Z 1700/1806 03014KT 8000 NSC= TAF GBYD 162330Z 1700/1806 02008KT 8000 NSC

Decode

Destination Runways

ID Width Length Bearing (true) Bearing (mag) Surface Threshold Offset Overrun Length
03 98 ft / 30 m 4,921 ft / 1,500 m 22.31° 29.66° Asphalt 0 ft / 0 m 98 ft / 30 m
18 148 ft / 45 m 11,511 ft / 3,509 m 172.57° 179.92° Asphalt 525 ft / 160 m 197 ft / 60 m
21 98 ft / 30 m 4,921 ft / 1,500 m 202.31° 209.66° Asphalt 0 ft / 0 m 1,590 ft / 485 m
36 148 ft / 45 m 11,511 ft / 3,509 m 352.57° 359.92° Asphalt 0 ft / 0 m 197 ft / 60 m

Approach Navaids

Runway Type Ident Frequency Range Bearing (true) Bearing (mag) Slope Elevation
36 Localiser YF 110.30 MHz 18 nm / 33 km 352.33° 359.67° - 65 ft / 20 m (AMSL)
36 Glidescope YF 110.30 MHz 10 nm / 19 km 352.57° 359.92° 3.01° 73 ft / 22 m (AMSL)
36 DME YF 110.30 MHz 18 nm / 33 km - - - 73 ft / 22 m (AMSL)

Popular Alternatives